createdAt,value
2023-05-06T11:34:07.160Z,101090.40
2023-05-06T11:36:37.241Z,101087.40
2023-05-06T11:39:11.010Z,101092.40
2023-05-06T11:41:40.871Z,101093.20
2023-05-06T11:44:11.573Z,101092.20
2023-05-06T11:46:43.826Z,101088.80
2023-05-06T11:49:15.235Z,101095.60
2023-05-06T11:51:43.103Z,101096.60
2023-05-06T11:54:12.087Z,101093.20
2023-05-06T11:56:57.501Z,101099.40
2023-05-06T11:59:40.255Z,101098.80
2023-05-06T12:02:13.674Z,101099.20
2023-05-06T12:04:44.950Z,101100.20
2023-05-06T12:07:18.363Z,101103.80
2023-05-06T12:09:49.812Z,101109.00
2023-05-06T12:12:25.004Z,101109.40
2023-05-06T12:14:54.068Z,101109.80
2023-05-06T12:17:25.026Z,101105.40
2023-05-06T12:20:03.807Z,101110.80
2023-05-06T12:22:31.969Z,101111.00
2023-05-06T12:25:14.157Z,101108.60
2023-05-06T12:27:42.021Z,101105.20
2023-05-06T12:30:13.291Z,101109.40
2023-05-06T12:32:58.216Z,101104.20
2023-05-06T12:35:28.671Z,101114.40
2023-05-06T12:38:07.567Z,101113.60
2023-05-06T12:40:35.947Z,101117.20
2023-05-06T12:43:04.669Z,101110.20
2023-05-06T12:45:33.374Z,101117.40
2023-05-06T12:48:04.034Z,101112.40
2023-05-06T12:50:43.426Z,101113.40
2023-05-06T12:53:15.844Z,101106.40
2023-05-06T12:55:45.895Z,101105.80
2023-05-06T12:58:20.809Z,101100.60
2023-05-06T13:00:48.718Z,101106.40
2023-05-06T13:03:19.259Z,101098.20
2023-05-06T13:05:50.338Z,101102.20
2023-05-06T13:08:19.550Z,101095.60
2023-05-06T13:10:47.663Z,101100.20
2023-05-06T13:13:16.818Z,101094.80
2023-05-06T13:15:44.812Z,101096.00
2023-05-06T13:18:12.735Z,101089.60
2023-05-06T13:20:40.918Z,101087.40
2023-05-06T13:23:08.750Z,101084.80
2023-05-06T13:25:44.920Z,101081.80
2023-05-06T13:28:19.897Z,101079.40
2023-05-06T13:30:48.246Z,101076.60
2023-05-06T13:33:16.140Z,101072.80
2023-05-06T13:35:43.948Z,101065.00
2023-05-06T13:38:11.773Z,101060.80
2023-05-06T13:40:39.676Z,101059.40
2023-05-06T13:43:07.599Z,101049.00
2023-05-06T13:45:36.119Z,101039.80
2023-05-06T13:48:04.171Z,101025.80
2023-05-06T13:50:32.359Z,101021.20
2023-05-06T13:53:00.731Z,101022.40
2023-05-06T13:55:29.984Z,101016.80
2023-05-06T13:57:58.207Z,101017.20
2023-05-06T14:00:26.206Z,101014.00
2023-05-06T14:02:54.925Z,101012.40
2023-05-06T14:05:23.211Z,101014.00
2023-05-06T14:07:51.773Z,101008.20
2023-05-06T14:10:21.129Z,101007.20
2023-05-06T14:12:51.414Z,101000.80
2023-05-06T14:15:19.463Z,101000.40
2023-05-06T14:17:47.437Z,101001.40
2023-05-06T14:20:15.478Z,100997.40
2023-05-06T14:22:45.715Z,100997.60
2023-05-06T14:25:14.658Z,100993.80
2023-05-06T14:27:45.531Z,100994.60
2023-05-06T14:30:15.931Z,100993.40
2023-05-06T14:32:43.991Z,100988.20
2023-05-06T14:35:12.219Z,100981.40
2023-05-06T14:37:41.369Z,100983.00
2023-05-06T14:40:10.237Z,100983.40
2023-05-06T14:42:38.867Z,100981.80
2023-05-06T14:45:08.739Z,100979.20
2023-05-06T14:47:41.339Z,100982.80
2023-05-06T14:50:11.033Z,100986.20
2023-05-06T14:52:41.316Z,100983.00
2023-05-06T14:55:11.333Z,100991.20
2023-05-06T14:57:40.964Z,100990.80
2023-05-06T15:00:12.714Z,100994.40
2023-05-06T15:02:44.076Z,101000.20
2023-05-06T15:05:13.982Z,101004.60
2023-05-06T15:07:42.859Z,101008.40
2023-05-06T15:10:11.471Z,101004.00
2023-05-06T15:12:39.654Z,100998.00
2023-05-06T15:15:08.776Z,100999.80
2023-05-06T15:17:38.808Z,100996.20
2023-05-06T15:20:09.308Z,101000.60
2023-05-06T15:22:39.356Z,101008.00
2023-05-06T15:25:12.293Z,101010.40
2023-05-06T15:27:47.026Z,101009.20
2023-05-06T15:30:15.828Z,101013.40
2023-05-06T15:32:44.329Z,101011.60
2023-05-06T15:35:13.267Z,101012.20
2023-05-06T15:37:41.533Z,101016.20
2023-05-06T15:40:14.500Z,101015.60
2023-05-06T15:42:42.398Z,101016.80
2023-05-06T15:45:12.200Z,101014.80
2023-05-06T15:47:40.938Z,101018.40
2023-05-06T15:50:24.724Z,101019.00
2023-05-06T15:53:01.411Z,101017.80
2023-05-06T15:55:30.283Z,101021.00
2023-05-06T15:58:02.498Z,101022.40
2023-05-06T16:00:32.231Z,101018.20
2023-05-06T16:03:00.419Z,101018.00
2023-05-06T16:05:28.403Z,101017.60
2023-05-06T16:07:56.774Z,101029.40
2023-05-06T16:10:25.874Z,101031.20
2023-05-06T16:12:54.399Z,101033.00
2023-05-06T16:15:22.324Z,101040.80
2023-05-06T16:17:53.102Z,101046.80
2023-05-06T16:20:20.979Z,101054.80
2023-05-06T16:22:50.829Z,101055.40
2023-05-06T16:25:18.833Z,101062.60
2023-05-06T16:27:46.772Z,101064.60
2023-05-06T16:30:15.156Z,101066.40
2023-05-06T16:32:43.315Z,101066.40
2023-05-06T16:35:11.643Z,101071.60
2023-05-06T16:37:40.056Z,101071.40
2023-05-06T16:40:11.446Z,101071.00
2023-05-06T16:42:39.614Z,101074.40
2023-05-06T16:45:09.551Z,101073.00
2023-05-06T16:47:37.509Z,101073.00
2023-05-06T16:50:06.949Z,101073.40
2023-05-06T16:52:35.801Z,101076.80
2023-05-06T16:55:04.071Z,101071.00
2023-05-06T16:57:32.142Z,101077.00
2023-05-06T17:00:01.972Z,101073.60
2023-05-06T17:02:30.083Z,101070.80
2023-05-06T17:04:58.332Z,101071.20
2023-05-06T17:07:27.811Z,101070.80
2023-05-06T17:09:55.750Z,101070.40
2023-05-06T17:12:27.092Z,101073.20
2023-05-06T17:14:55.075Z,101072.20
2023-05-06T17:17:27.966Z,101073.80
2023-05-06T17:19:57.752Z,101077.80
2023-05-06T17:22:26.622Z,101076.40
2023-05-06T17:24:54.635Z,101073.00
2023-05-06T17:27:22.477Z,101068.40
2023-05-06T17:29:50.524Z,101072.80
2023-05-06T17:32:22.937Z,101068.60
2023-05-06T17:34:52.104Z,101067.60
2023-05-06T17:37:20.031Z,101064.00
2023-05-06T17:39:47.932Z,101069.00
2023-05-06T17:42:16.045Z,101065.00
2023-05-06T17:44:44.116Z,101068.60
2023-05-06T17:47:13.072Z,101068.40
2023-05-06T17:49:41.192Z,101071.00
2023-05-06T17:52:09.420Z,101072.00
2023-05-06T17:54:38.722Z,101077.20
2023-05-06T17:57:06.613Z,101076.20
2023-05-06T17:59:35.966Z,101082.20
2023-05-06T18:02:04.173Z,101080.80
2023-05-06T18:04:32.266Z,101091.20
2023-05-06T18:07:00.150Z,101092.80
2023-05-06T18:09:28.026Z,101092.40
2023-05-06T18:11:56.645Z,101096.40
2023-05-06T18:14:24.560Z,101094.40
2023-05-06T18:16:52.589Z,101089.80
2023-05-06T18:19:21.077Z,101094.40
2023-05-06T18:21:49.464Z,101092.80
2023-05-06T18:24:17.370Z,101098.00
2023-05-06T18:26:46.191Z,101097.40
2023-05-06T18:29:14.439Z,101098.00
2023-05-06T18:31:43.055Z,101097.20
2023-05-06T18:34:11.241Z,101104.80
2023-05-06T18:36:39.315Z,101109.20
2023-05-06T18:39:08.900Z,101112.40
2023-05-06T18:41:36.725Z,101111.40
2023-05-06T18:44:07.539Z,101117.20
2023-05-06T18:46:38.174Z,101110.60
2023-05-06T18:49:08.097Z,101115.00
2023-05-06T18:51:36.962Z,101108.80
2023-05-06T18:54:05.052Z,101109.40
2023-05-06T18:56:33.508Z,101109.80
2023-05-06T18:59:01.556Z,101112.20
2023-05-06T19:01:29.843Z,101103.40
2023-05-06T19:03:58.393Z,101105.40
2023-05-06T19:06:26.273Z,101109.00
2023-05-06T19:08:54.517Z,101103.00
2023-05-06T19:11:22.634Z,101106.60
2023-05-06T19:13:52.183Z,101107.80
2023-05-06T19:16:20.079Z,101107.80
2023-05-06T19:18:48.099Z,101109.00
2023-05-06T19:21:16.273Z,101101.40
2023-05-06T19:23:45.146Z,101095.40
2023-05-06T19:26:13.776Z,101109.20
2023-05-06T19:28:41.686Z,101109.60
2023-05-06T19:31:11.430Z,101108.00
2023-05-06T19:33:40.420Z,101099.60
2023-05-06T19:36:09.274Z,101095.20
2023-05-06T19:38:38.308Z,101095.60
2023-05-06T19:41:07.309Z,101093.40
2023-05-06T19:43:42.212Z,101088.80
2023-05-06T19:46:11.576Z,101081.00
2023-05-06T19:48:39.570Z,101081.80
2023-05-06T19:51:10.695Z,101077.20
2023-05-06T19:53:38.582Z,101085.80
2023-05-06T19:56:14.516Z,101088.40
2023-05-06T19:58:43.103Z,101088.00
2023-05-06T20:01:14.742Z,101081.20
2023-05-06T20:03:42.876Z,101085.20
2023-05-06T20:06:11.096Z,101080.20
2023-05-06T20:08:42.019Z,101089.60
2023-05-06T20:11:10.344Z,101087.20
2023-05-06T20:13:38.485Z,101094.40
2023-05-06T20:16:06.981Z,101100.60
2023-05-06T20:18:35.660Z,101102.40
2023-05-06T20:21:03.801Z,101103.60
2023-05-06T20:23:31.715Z,101105.20
2023-05-06T20:25:59.888Z,101107.00
2023-05-06T20:28:28.401Z,101106.80
2023-05-06T20:31:00.705Z,101104.00
2023-05-06T20:33:28.799Z,101108.00
2023-05-06T20:35:58.027Z,101104.00
2023-05-06T20:38:27.345Z,101106.20
2023-05-06T20:40:55.500Z,101107.00
2023-05-06T20:43:25.528Z,101111.60
2023-05-06T20:45:53.367Z,101105.20
2023-05-06T20:48:23.725Z,101102.20
2023-05-06T20:50:54.204Z,101101.80
2023-05-06T20:53:23.691Z,101103.40
2023-05-06T20:55:53.201Z,101097.80
2023-05-06T20:58:23.969Z,101087.40
2023-05-06T21:00:54.272Z,101090.60
2023-05-06T21:03:22.649Z,101093.40
2023-05-06T21:05:52.713Z,101090.20
2023-05-06T21:08:20.858Z,101093.20
2023-05-06T21:10:48.677Z,101092.40
2023-05-06T21:13:19.862Z,101094.00
2023-05-06T21:15:48.155Z,101091.80
2023-05-06T21:18:17.000Z,101086.40
2023-05-06T21:20:45.346Z,101088.80
2023-05-06T21:23:13.433Z,101098.80
2023-05-06T21:25:41.555Z,101096.40
2023-05-06T21:28:11.635Z,101101.20
2023-05-06T21:30:42.005Z,101109.80
2023-05-06T21:33:11.471Z,101109.40
2023-05-06T21:35:39.640Z,101105.80
2023-05-06T21:38:07.586Z,101103.60
2023-05-06T21:40:35.543Z,101097.40
2023-05-06T21:43:03.557Z,101095.60
2023-05-06T21:45:31.430Z,101101.00
2023-05-06T21:48:00.616Z,101103.20
2023-05-06T21:50:28.501Z,101105.20
2023-05-06T21:52:56.331Z,101103.40
2023-05-06T21:55:27.794Z,101104.00
2023-05-06T21:57:55.829Z,101098.20
2023-05-06T22:00:24.949Z,101101.40
2023-05-06T22:02:54.720Z,101106.40
2023-05-06T22:05:23.013Z,101107.60
2023-05-06T22:07:52.817Z,101104.60
2023-05-06T22:10:21.895Z,101101.00
2023-05-06T22:12:53.308Z,101095.20
2023-05-06T22:15:26.498Z,101094.60
2023-05-06T22:17:59.289Z,101095.80
2023-05-06T22:20:27.932Z,101093.80
2023-05-06T22:22:56.195Z,101100.00
2023-05-06T22:25:24.795Z,101096.20
2023-05-06T22:27:53.021Z,101102.00
2023-05-06T22:30:21.841Z,101091.00
2023-05-06T22:32:49.699Z,101095.20
2023-05-06T22:35:17.904Z,101100.00
2023-05-06T22:37:48.133Z,101100.20
2023-05-06T22:40:16.211Z,101097.20
2023-05-06T22:42:44.144Z,101097.00
2023-05-06T22:45:12.319Z,101107.80
2023-05-06T22:47:41.106Z,101106.00
2023-05-06T22:50:10.029Z,101104.20
2023-05-06T22:52:38.378Z,101100.40
2023-05-06T22:55:09.861Z,101099.20
2023-05-06T22:57:38.304Z,101102.20
2023-05-06T23:00:10.937Z,101104.60
2023-05-06T23:02:39.010Z,101103.00
2023-05-06T23:05:07.451Z,101095.80
2023-05-06T23:07:35.335Z,101094.40
2023-05-06T23:10:03.612Z,101093.60
2023-05-06T23:12:35.321Z,101095.40
2023-05-06T23:15:03.834Z,101092.80
2023-05-06T23:17:32.026Z,101093.20
2023-05-06T23:20:00.264Z,101096.80
2023-05-06T23:22:28.328Z,101102.60
2023-05-06T23:24:57.279Z,101103.00
2023-05-06T23:27:25.198Z,101105.40
2023-05-06T23:29:53.265Z,101108.60
2023-05-06T23:32:21.218Z,101103.40
2023-05-06T23:34:49.714Z,101111.60
2023-05-06T23:37:17.707Z,101114.20
2023-05-06T23:39:47.074Z,101111.20
2023-05-06T23:42:15.050Z,101117.20
2023-05-06T23:44:43.023Z,101116.20
2023-05-06T23:47:11.906Z,101122.80
2023-05-06T23:49:39.650Z,101118.60
2023-05-06T23:52:07.601Z,101120.40
2023-05-06T23:54:35.569Z,101121.80
2023-05-06T23:57:03.785Z,101127.40
2023-05-06T23:59:35.143Z,101130.20
